Time;durP1;ratioP1;P1;durP2;ratioP2;P2;SDS_P1;SDS_P2;PMS_P1;PMS_P2;Temp;Humidity;BMP_temperature;BMP_pressure;BME280_temperature;BME280_humidity;BME280_pressure;Samples;Min_cycle;Max_cycle;Signal;HPM_P1;HPM_P2
2021/12/14 00:00:01;;;;;;;7.20;4.23;;;;;;;-1.13;88.92;96252.55;1721153;83;21098;-73
2021/12/14 00:02:29;;;;;;;5.70;4.40;;;;;;;-1.12;88.87;96250.00;1720560;83;21087;-70
2021/12/14 00:04:59;;;;;;;4.73;3.30;;;;;;;-1.11;88.88;96249.19;1721435;83;21515;-73
2021/12/14 00:07:28;;;;;;;5.90;4.10;;;;;;;-1.11;88.77;96253.46;1721186;83;21007;-73
2021/12/14 00:10:10;;;;;;;5.63;4.50;;;;;;;-1.14;88.61;96243.87;1721011;83;21035;-74
2021/12/14 00:15:03;;;;;;;6.10;4.63;;;;;;;-1.07;88.83;96249.30;1721187;83;21075;-74
2021/12/14 00:17:38;;;;;;;8.60;4.70;;;;;;;-1.05;88.77;96246.36;1721280;83;20996;-74
2021/12/14 00:20:13;;;;;;;6.17;4.67;;;;;;;-1.05;88.74;96251.11;1720264;83;21074;-74
2021/12/14 00:25:29;;;;;;;7.93;5.13;;;;;;;-1.03;88.63;96255.95;1720942;83;21528;-74
2021/12/14 00:27:58;;;;;;;6.53;4.73;;;;;;;-1.01;88.61;96255.98;1721220;83;21130;-74
2021/12/14 00:30:26;;;;;;;5.50;4.40;;;;;;;-1.00;88.64;96256.47;1721463;83;21507;-73
2021/12/14 00:32:54;;;;;;;7.70;4.70;;;;;;;-1.02;88.48;96261.58;1721073;83;21063;-72
2021/12/14 00:35:21;;;;;;;7.57;5.20;;;;;;;-1.04;88.45;96261.06;1720863;83;21023;-71
2021/12/14 00:37:52;;;;;;;7.00;4.80;;;;;;;-1.05;88.54;96262.77;1721147;83;21517;-72
2021/12/14 00:40:37;;;;;;;7.70;5.60;;;;;;;-1.03;88.51;96267.60;1721244;83;21126;-72
2021/12/14 00:43:07;;;;;;;8.73;5.30;;;;;;;-1.04;88.53;96269.70;1711954;83;21099;-72
2021/12/14 00:45:39;;;;;;;7.17;5.37;;;;;;;-1.01;88.57;96279.30;1712716;84;21100;-72
2021/12/14 00:48:09;;;;;;;6.77;4.27;;;;;;;-1.01;88.58;96275.41;1712848;84;21020;-72
2021/12/14 00:50:38;;;;;;;7.50;5.33;;;;;;;-0.97;88.57;96279.47;1713285;84;21055;-73
2021/12/14 00:53:05;;;;;;;7.10;5.07;;;;;;;-0.95;88.53;96282.13;1713061;83;21028;-73
2021/12/14 00:55:39;;;;;;;6.70;4.70;;;;;;;-0.97;88.35;96285.94;1722916;83;21027;-72
2021/12/14 00:58:06;;;;;;;;;;;;;;;-1.00;88.28;96283.67;1725843;83;21110;-73
2021/12/14 01:00:38;;;;;;;7.83;5.00;;;;;;;-1.00;88.35;96280.66;1715019;83;20092;-73
2021/12/14 01:03:07;;;;;;;7.22;4.40;;;;;;;-0.98;88.51;96286.78;1712906;84;21075;-73
2021/12/14 01:05:42;;;;;;;7.13;5.20;;;;;;;-0.95;88.58;96287.31;1713030;84;21001;-73
2021/12/14 01:08:14;;;;;;;7.67;4.83;;;;;;;-0.95;88.48;96297.25;1713487;83;21008;-73
2021/12/14 01:11:01;;;;;;;7.60;4.83;;;;;;;-0.96;88.33;96291.61;1713398;83;21039;-73
2021/12/14 01:13:29;;;;;;;6.90;4.70;;;;;;;-1.01;88.42;96290.95;1713404;83;21035;-73
2021/12/14 01:16:31;;;;;;;6.73;4.60;;;;;;;-1.01;88.48;96285.77;1713326;83;21030;-73
2021/12/14 01:19:02;;;;;;;7.00;4.50;;;;;;;-0.96;88.64;96286.81;1710651;83;21088;-73
2021/12/14 01:21:45;;;;;;;7.90;5.07;;;;;;;-0.97;88.38;96288.95;1712447;83;20988;-73
2021/12/14 01:24:06;;;;;;;6.53;4.53;;;;;;;-0.93;88.60;96286.53;1711346;83;21104;-72
2021/12/14 01:26:36;;;;;;;9.37;5.90;;;;;;;-0.89;88.43;96289.69;1713370;83;21012;-72
2021/12/14 01:29:07;;;;;;;8.70;5.60;;;;;;;-0.87;88.40;96288.46;1713435;83;21134;-72
2021/12/14 01:31:40;;;;;;;9.00;5.80;;;;;;;-0.87;88.35;96284.16;1713336;84;21007;-72
2021/12/14 01:34:12;;;;;;;7.67;5.53;;;;;;;-0.83;88.30;96286.46;1713361;84;21028;-72
2021/12/14 01:36:46;;;;;;;7.57;5.33;;;;;;;-0.77;88.43;96287.09;1713010;83;21143;-73
2021/12/14 01:42:09;;;;;;;7.30;5.50;;;;;;;-0.79;87.83;96281.84;1713272;83;21040;-73
2021/12/14 01:44:51;;;;;;;8.03;5.57;;;;;;;-0.77;87.97;96278.89;1712947;84;20993;-72
2021/12/14 01:47:28;;;;;;;7.33;5.30;;;;;;;-0.76;87.81;96274.17;1673291;86;21049;-74
2021/12/14 01:50:22;;;;;;;6.83;4.55;;;;;;;-0.74;87.99;96278.12;1673211;86;21502;-73
2021/12/14 01:53:00;;;;;;;6.30;4.60;;;;;;;-0.75;87.74;96271.19;1670681;86;21084;-74
2021/12/14 01:55:32;;;;;;;9.00;5.13;;;;;;;-0.79;87.61;96272.77;1673409;86;21056;-73
2021/12/14 01:58:03;;;;;;;7.40;5.03;;;;;;;-0.75;87.91;96278.96;1673508;86;21032;-73
2021/12/14 02:00:53;;;;;;;7.33;5.37;;;;;;;-0.71;88.09;96280.39;1673527;86;21040;-73
2021/12/14 02:03:30;;;;;;;8.80;5.13;;;;;;;-0.63;88.22;96278.50;1673267;86;21087;-73
2021/12/14 02:05:57;;;;;;;8.23;5.27;;;;;;;-0.63;87.74;96282.37;1672474;85;21106;-71
2021/12/14 02:08:29;;;;;;;8.17;4.67;;;;;;;-0.75;87.10;96283.72;1673350;86;21028;-72
2021/12/14 02:10:59;;;;;;;8.10;5.43;;;;;;;-0.77;87.44;96293.14;1673520;85;21044;-72
2021/12/14 02:13:31;;;;;;;7.03;5.07;;;;;;;-0.72;87.81;96293.32;1673323;86;21047;-72
2021/12/14 02:15:59;;;;;;;6.87;4.87;;;;;;;-0.67;87.80;96291.35;1673682;86;21581;-72
2021/12/14 02:18:29;;;;;;;5.40;4.00;;;;;;;-0.70;87.28;96288.66;1673450;86;21515;-72
2021/12/14 02:21:00;;;;;;;7.27;4.20;;;;;;;-0.79;86.83;96281.84;1673335;84;21039;-73
2021/12/14 02:23:30;;;;;;;5.90;4.20;;;;;;;-0.92;86.80;96272.74;1673626;86;21000;-73
2021/12/14 02:26:02;;;;;;;6.03;4.23;;;;;;;-0.89;87.07;96264.20;1672994;85;21032;-73
2021/12/14 02:28:29;;;;;;;6.70;4.73;;;;;;;-0.92;87.07;96263.68;1673460;86;21040;-73
2021/12/14 02:30:58;;;;;;;7.23;4.87;;;;;;;-0.93;87.35;96267.11;1673134;86;21570;-73
2021/12/14 02:33:31;;;;;;;7.13;5.17;;;;;;;-0.88;87.62;96269.45;1673180;86;21032;-71
2021/12/14 02:36:02;;;;;;;10.55;7.30;;;;;;;-0.83;87.86;96269.62;1673616;86;21005;-72
2021/12/14 02:38:29;;;;;;;10.30;7.03;;;;;;;-0.82;87.68;96264.02;1673652;86;21067;-72
2021/12/14 02:41:02;;;;;;;8.67;5.83;;;;;;;-0.76;87.99;96268.11;1673036;86;21072;-73
2021/12/14 02:43:42;;;;;;;8.73;5.90;;;;;;;-0.75;87.61;96270.77;1710222;82;21062;-72
2021/12/14 02:46:35;;;;;;;9.53;5.70;;;;;;;-0.81;87.22;96263.18;1729227;83;21083;-72
2021/12/14 02:49:06;;;;;;;7.92;5.62;;;;;;;-0.81;87.42;96260.59;1729059;83;21557;-72
2021/12/14 02:51:44;;;;;;;8.73;5.80;;;;;;;-0.86;87.39;96264.30;1728789;82;21099;-72
2021/12/14 02:54:19;;;;;;;8.70;5.77;;;;;;;-0.89;87.37;96267.66;1728763;82;21505;-72
2021/12/14 02:56:52;;;;;;;9.60;6.43;;;;;;;-0.94;87.44;96264.45;1728623;82;21114;-72
2021/12/14 02:59:24;;;;;;;8.90;5.70;;;;;;;-0.95;87.51;96263.58;1729161;83;21027;-73
2021/12/14 03:01:54;;;;;;;7.97;5.80;;;;;;;-0.99;87.52;96265.57;1728976;82;21027;-73
2021/12/14 03:04:21;;;;;;;6.63;4.37;;;;;;;-1.03;87.52;96271.48;1728979;82;21501;-73
2021/12/14 03:06:53;;;;;;;8.20;5.60;;;;;;;-1.03;87.72;96272.78;1728764;82;21126;-73
2021/12/14 03:09:39;;;;;;;7.03;5.50;;;;;;;-1.10;87.42;96269.07;1728057;82;21051;-73
2021/12/14 03:12:09;;;;;;;7.77;5.30;;;;;;;-1.16;87.14;96266.66;1728052;82;21028;-73
2021/12/14 03:14:39;;;;;;;7.23;5.03;;;;;;;-1.17;87.58;96268.37;1728791;83;21057;-73
2021/12/14 03:17:06;;;;;;;7.73;4.90;;;;;;;-1.20;87.36;96264.80;1728560;83;21091;-72
2021/12/14 03:19:33;;;;;;;6.87;4.30;;;;;;;-1.20;87.73;96267.39;1728885;82;20999;-73
2021/12/14 03:22:00;;;;;;;5.77;4.00;;;;;;;-1.19;87.55;96273.02;1728856;82;21138;-73
2021/12/14 03:24:26;;;;;;;7.47;4.63;;;;;;;-1.22;87.35;96274.20;1729009;82;20988;-72
2021/12/14 03:26:55;;;;;;;7.33;4.50;;;;;;;-1.20;87.69;96275.16;1728782;83;21613;-73
2021/12/14 03:29:29;;;;;;;7.10;4.97;;;;;;;-1.17;87.57;96272.67;1728982;82;21027;-72
2021/12/14 03:31:58;;;;;;;7.33;4.77;;;;;;;-1.17;87.44;96276.55;1728910;83;21054;-72
2021/12/14 03:34:35;;;;;;;7.77;4.70;;;;;;;-1.15;87.41;96273.62;1729053;82;21465;-72
2021/12/14 03:37:10;;;;;;;7.33;4.80;;;;;;;-1.08;87.75;96274.32;1729271;82;21138;-72
2021/12/14 03:39:42;;;;;;;5.93;4.30;;;;;;;-1.04;87.83;96268.83;1729145;83;21493;-72
2021/12/14 03:42:18;;;;;;;7.20;5.00;;;;;;;-0.98;87.80;96269.06;1729198;83;21131;-73
2021/12/14 03:44:50;;;;;;;6.50;4.23;;;;;;;-0.89;88.00;96274.14;1728829;82;21008;-73
2021/12/14 03:47:30;;;;;;;6.57;4.57;;;;;;;-0.79;87.85;96280.96;1729236;82;21027;-73
2021/12/14 03:50:05;;;;;;;6.70;4.83;;;;;;;-0.83;87.25;96282.96;1729153;82;20991;-73
2021/12/14 03:52:37;;;;;;;6.20;4.50;;;;;;;-0.88;87.04;96286.71;1729070;83;21466;-73
2021/12/14 03:55:09;;;;;;;7.47;5.17;;;;;;;-0.90;87.27;96280.16;1729257;82;21477;-73
2021/12/14 03:57:37;;;;;;;9.80;6.03;;;;;;;-0.89;87.31;96284.50;1729321;82;21018;-73
2021/12/14 04:00:18;;;;;;;9.63;6.30;;;;;;;-0.85;87.40;96279.46;1728975;83;21023;-73
2021/12/14 04:02:49;;;;;;;7.30;4.77;;;;;;;-0.82;87.38;96279.14;1729125;82;21076;-72
2021/12/14 04:05:19;;;;;;;6.20;4.73;;;;;;;-0.83;87.11;96272.60;1728819;83;21102;-73
2021/12/14 04:07:47;;;;;;;6.57;4.50;;;;;;;-0.85;86.99;96272.98;1729068;83;21011;-72
2021/12/14 04:10:26;;;;;;;7.33;4.50;;;;;;;-0.85;87.06;96267.80;1729023;82;21143;-72
2021/12/14 04:12:53;;;;;;;12.17;7.23;;;;;;;-0.83;87.16;96272.60;1728335;82;21043;-70
2021/12/14 04:15:21;;;;;;;12.50;6.70;;;;;;;-0.82;87.33;96271.80;1729102;82;21489;-68
2021/12/14 04:17:49;;;;;;;7.60;4.97;;;;;;;-0.85;87.29;96271.27;1728742;82;21047;-68
2021/12/14 04:20:27;;;;;;;7.27;5.07;;;;;;;-0.88;87.11;96272.46;1728289;83;21088;-68
2021/12/14 04:22:55;;;;;;;7.30;5.13;;;;;;;-0.94;87.01;96271.80;1728736;83;21034;-69
2021/12/14 04:25:27;;;;;;;9.10;5.47;;;;;;;-0.93;87.32;96274.87;1728941;83;21015;-69
2021/12/14 04:27:57;;;;;;;7.57;5.43;;;;;;;-0.95;87.23;96278.24;1728897;83;21026;-69
2021/12/14 04:30:26;;;;;;;7.63;5.43;;;;;;;-0.87;87.81;96282.86;1729005;83;21031;-69
2021/12/14 04:32:58;;;;;;;48.70;27.67;;;;;;;-0.81;88.00;96282.19;1728821;83;21062;-68
2021/12/14 04:35:25;;;;;;;11.17;7.03;;;;;;;-0.76;87.82;96285.83;1728954;83;21110;-69
2021/12/14 04:37:58;;;;;;;10.87;7.23;;;;;;;-0.71;87.95;96292.48;1729068;83;21066;-69
2021/12/14 04:51:59;;;;;;;12.37;7.60;;;;;;;-0.84;86.74;96305.41;1712876;84;20993;-68
2021/12/14 04:54:36;;;;;;;15.83;11.13;;;;;;;-0.80;87.38;96316.78;1713024;83;21039;-68
2021/12/14 04:57:07;;;;;;;16.20;9.70;;;;;;;-0.82;87.32;96319.30;1711339;83;21085;-68
2021/12/14 04:59:36;;;;;;;15.23;9.97;;;;;;;-0.86;87.33;96325.19;1712450;83;21008;-67
2021/12/14 05:02:14;;;;;;;14.50;9.13;;;;;;;-0.85;87.47;96324.80;1713099;84;20984;-67
2021/12/14 05:04:55;;;;;;;17.20;10.03;;;;;;;-0.84;87.73;96324.84;1688466;83;21020;-67
2021/12/14 05:07:45;;;;;;;48.93;25.57;;;;;;;-0.74;88.08;96321.75;1713367;84;21514;-67
2021/12/14 05:10:03;;;;;;;23.10;13.23;;;;;;;-0.66;87.95;96323.33;1711258;83;21089;-67
2021/12/14 05:12:31;;;;;;;;;;;;;;;-0.55;88.29;96320.72;1715962;84;21012;-68
2021/12/14 05:15:10;;;;;;;14.77;9.23;;;;;;;-0.50;87.61;96323.48;1712764;83;20099;-67
2021/12/14 05:17:43;;;;;;;15.98;9.28;;;;;;;-0.51;87.48;96324.30;1713295;83;21656;-67
2021/12/14 05:20:13;;;;;;;14.83;10.07;;;;;;;-0.55;87.09;96327.63;1700874;84;21035;-68
2021/12/14 05:22:44;;;;;;;14.40;9.50;;;;;;;-0.60;86.88;96323.56;1713123;84;21092;-68
2021/12/14 05:25:26;;;;;;;16.03;10.13;;;;;;;-0.60;87.05;96320.97;1713241;84;21000;-67
2021/12/14 05:27:59;;;;;;;15.10;9.60;;;;;;;-0.57;87.31;96322.38;1713148;83;21004;-68
2021/12/14 05:30:40;;;;;;;14.03;10.30;;;;;;;-0.62;86.69;96321.75;1713161;84;21028;-68
2021/12/14 05:33:13;;;;;;;19.43;10.30;;;;;;;-0.74;86.60;96319.16;1711505;83;21111;-68
2021/12/14 05:35:41;;;;;;;21.50;12.83;;;;;;;-0.80;86.54;96325.85;1712005;83;20988;-68
2021/12/14 05:38:14;;;;;;;17.87;11.37;;;;;;;-0.86;86.45;96326.48;1712926;84;21151;-68
2021/12/14 05:43:26;;;;;;;19.97;11.60;;;;;;;-0.83;87.33;96332.19;1712906;83;21115;-68
2021/12/14 05:46:11;;;;;;;19.53;13.43;;;;;;;-0.78;87.28;96335.83;1712118;83;21103;-67
2021/12/14 05:48:46;;;;;;;19.40;12.57;;;;;;;-0.84;87.12;96342.09;1712803;83;21055;-67
2021/12/14 05:51:13;;;;;;;19.50;12.53;;;;;;;-0.94;86.69;96340.86;1712671;84;21101;-68
2021/12/14 05:53:45;;;;;;;19.40;12.03;;;;;;;-1.01;86.68;96345.34;1713096;84;21067;-67
2021/12/14 05:56:18;;;;;;;24.43;13.95;;;;;;;-1.03;86.85;96347.89;1713264;84;21004;-67
2021/12/14 05:58:47;;;;;;;30.03;15.63;;;;;;;-1.13;86.88;96344.48;1713214;84;21541;-67
2021/12/14 06:01:20;;;;;;;33.47;16.33;;;;;;;-1.18;86.87;96351.20;1713317;84;21000;-66
2021/12/14 06:03:59;;;;;;;30.43;17.43;;;;;;;-1.21;87.13;96347.16;1701027;84;21505;-66
2021/12/14 06:06:41;;;;;;;32.50;18.07;;;;;;;-1.25;87.12;96348.77;1713147;84;21003;-69
2021/12/14 06:09:16;;;;;;;29.37;16.87;;;;;;;-1.30;86.98;96349.00;1712460;83;21154;-67
2021/12/14 06:11:48;;;;;;;26.00;15.50;;;;;;;-1.38;86.92;96351.29;1712800;83;21016;-67
2021/12/14 06:14:20;;;;;;;17.97;11.20;;;;;;;-1.47;87.37;96363.86;1700830;84;21112;-67
2021/12/14 06:16:52;;;;;;;16.10;10.47;;;;;;;-1.51;87.73;96361.98;1712732;83;20988;-68
2021/12/14 06:19:27;;;;;;;17.83;11.77;;;;;;;-1.49;87.99;96364.20;1713181;84;21044;-68
2021/12/14 06:22:09;;;;;;;20.20;13.87;;;;;;;-1.51;87.92;96371.05;1713214;84;21478;-68
2021/12/14 06:24:40;;;;;;;70.13;38.30;;;;;;;-1.52;87.87;96373.14;1712146;83;21031;-70
2021/12/14 06:27:12;;;;;;;39.67;21.53;;;;;;;-1.49;87.85;96377.56;1713199;84;20976;-73
2021/12/14 06:29:47;;;;;;;27.77;17.10;;;;;;;-1.44;88.03;96379.92;1712361;83;21059;-69
2021/12/14 06:32:22;;;;;;;26.30;14.40;;;;;;;-1.40;88.39;96382.70;1713372;84;21027;-75
2021/12/14 06:34:54;;;;;;;37.47;22.03;;;;;;;-1.34;88.43;96380.34;1713498;83;21055;-72
2021/12/14 06:37:54;;;;;;;27.87;15.70;;;;;;;-1.32;88.41;96382.58;1712288;83;21060;-85
2021/12/14 06:40:19;;;;;;;64.57;32.50;;;;;;;-1.21;88.68;96378.23;1711790;83;21108;-70
2021/12/14 06:42:57;;;;;;;84.13;41.33;;;;;;;-1.22;88.22;96376.48;1713169;83;21008;-70
2021/12/14 06:45:36;;;;;;;99.40;42.83;;;;;;;-1.28;88.14;96379.72;1728248;83;21594;-68
2021/12/14 06:48:15;;;;;;;53.67;25.73;;;;;;;-1.28;88.17;96373.25;1728991;82;21035;-67
2021/12/14 06:50:56;;;;;;;117.87;56.93;;;;;;;-1.21;88.26;96379.53;1728622;82;21529;-67
2021/12/14 06:53:28;;;;;;;142.07;65.10;;;;;;;-1.21;88.46;96373.06;1727954;82;21081;-83
2021/12/14 06:56:04;;;;;;;104.87;55.10;;;;;;;-1.12;88.67;96368.25;1714382;82;21576;-71
2021/12/14 06:59:07;;;;;;;123.17;63.00;;;;;;;-1.04;88.46;96370.71;1728916;83;20992;-72
2021/12/14 07:01:41;;;;;;;107.07;57.50;;;;;;;-1.01;88.21;96380.30;1719456;83;21094;-70
2021/12/14 07:04:12;;;;;;;83.13;45.13;;;;;;;-1.00;87.90;96376.91;1728935;82;21083;-67
2021/12/14 07:06:50;;;;;;;83.93;46.87;;;;;;;-0.98;87.57;96383.04;1728966;83;21051;-71
2021/12/14 07:09:34;;;;;;;66.67;38.70;;;;;;;-0.95;87.81;96375.38;1728927;82;21053;-67
2021/12/14 07:12:13;;;;;;;60.27;33.57;;;;;;;-0.81;88.29;96376.77;1728422;82;21100;-71
2021/12/14 07:14:54;;;;;;;58.90;32.47;;;;;;;-0.63;88.23;96385.66;1728960;83;21003;-71
2021/12/14 07:17:29;;;;;;;52.67;31.20;;;;;;;-0.53;87.56;96388.16;1733890;81;21520;-69
2021/12/14 07:20:21;;;;;;;57.70;31.53;;;;;;;-0.51;86.92;96389.97;1746232;81;21054;-69
2021/12/14 07:22:55;;;;;;;50.50;27.43;;;;;;;-0.49;86.99;96385.73;1734593;81;21010;-69
2021/12/14 07:25:38;;;;;;;56.83;29.07;;;;;;;-0.39;86.72;96393.44;1729497;83;21605;-69
2021/12/14 07:28:12;;;;;;;48.17;24.07;;;;;;;-0.31;86.54;96392.00;1747170;81;21002;-76
2021/12/14 07:30:50;;;;;;;43.43;23.10;;;;;;;-0.23;86.50;96393.56;1779435;81;21050;-73
2021/12/14 07:33:33;;;;;;;36.77;19.67;;;;;;;-0.16;86.57;96392.96;1759776;81;21564;-72
2021/12/14 07:36:13;;;;;;;41.95;18.32;;;;;;;-0.10;85.97;96397.09;1779418;81;21557;-71
2021/12/14 07:38:55;;;;;;;30.07;14.53;;;;;;;-0.06;85.82;96392.88;1751658;81;21088;-68
2021/12/14 07:41:42;;;;;;;32.80;16.50;;;;;;;0.04;86.21;96391.06;1742908;81;21054;-68
2021/12/14 07:44:16;;;;;;;38.97;18.60;;;;;;;0.09;85.50;96384.32;1775476;80;21123;-69
2021/12/14 07:46:57;;;;;;;29.13;16.23;;;;;;;0.11;84.98;96381.80;1750340;82;21130;-70
2021/12/14 07:49:33;;;;;;;40.17;19.83;;;;;;;0.13;84.72;96377.12;1765516;81;21027;-69
2021/12/14 07:52:11;;;;;;;44.57;22.43;;;;;;;0.17;84.81;96382.86;1749510;82;21050;-68
2021/12/14 07:54:43;;;;;;;27.83;16.87;;;;;;;0.26;85.23;96388.80;1761407;81;21035;-70
2021/12/14 07:57:23;;;;;;;26.30;15.57;;;;;;;0.35;84.98;96395.61;1748476;82;21475;-68
2021/12/14 07:59:58;;;;;;;19.00;11.80;;;;;;;0.35;84.09;96390.80;1758400;81;21004;-74
2021/12/14 08:02:32;;;;;;;20.13;12.67;;;;;;;0.37;83.87;96393.05;1747588;82;21099;-74
2021/12/14 08:05:36;;;;;;;21.70;12.90;;;;;;;0.38;84.05;96394.83;1747541;82;21145;-73
2021/12/14 08:08:33;;;;;;;26.15;14.45;;;;;;;0.44;83.90;96395.02;1747704;82;21151;-70
2021/12/14 08:11:16;;;;;;;23.37;13.57;;;;;;;0.51;83.76;96394.81;1747023;82;21079;-68
2021/12/14 08:13:27;;;;;;;24.15;15.68;;;;;;;0.57;83.65;96397.60;1744233;82;21043;-67
2021/12/14 08:15:59;;;;;;;21.83;14.13;;;;;;;0.59;83.24;96403.73;1748020;81;20996;-70
2021/12/14 08:18:33;;;;;;;25.47;15.33;;;;;;;0.67;83.41;96404.86;1747667;82;21083;-68
2021/12/14 08:21:17;;;;;;;28.43;16.73;;;;;;;0.77;83.62;96407.34;1747858;81;21011;-68
2021/12/14 08:24:00;;;;;;;25.70;15.63;;;;;;;0.84;83.43;96406.70;1747823;82;21042;-70
2021/12/14 08:26:38;;;;;;;21.27;12.97;;;;;;;0.90;82.88;96405.59;1747534;82;21545;-70
2021/12/14 08:29:24;;;;;;;22.63;13.97;;;;;;;0.89;81.98;96422.45;1747919;81;21087;-68
2021/12/14 08:32:11;;;;;;;24.00;13.73;;;;;;;0.91;82.26;96424.27;1747599;82;21035;-70
2021/12/14 08:34:42;;;;;;;31.80;17.83;;;;;;;0.95;82.31;96426.10;1747527;82;21125;-68
2021/12/14 08:37:20;;;;;;;27.07;14.60;;;;;;;0.96;81.80;96435.68;1747761;82;21019;-68
2021/12/14 08:40:00;;;;;;;24.33;14.80;;;;;;;0.94;81.48;96437.77;1747117;81;21055;-69
2021/12/14 08:43:02;;;;;;;24.80;14.07;;;;;;;0.89;81.37;96436.31;1747867;82;21067;-68
2021/12/14 08:45:30;;;;;;;21.43;13.57;;;;;;;0.97;81.60;96435.26;1737694;82;21074;-68
2021/12/14 08:48:08;;;;;;;22.07;12.73;;;;;;;1.02;81.63;96426.77;1725497;83;21083;-69
2021/12/14 08:50:43;;;;;;;22.20;12.40;;;;;;;0.99;81.08;96424.08;1699465;83;21040;-70
2021/12/14 08:53:12;;;;;;;22.90;12.93;;;;;;;1.00;81.17;96436.23;1708584;83;21496;-74
2021/12/14 08:55:43;;;;;;;24.20;13.80;;;;;;;1.01;80.96;96431.52;1713865;83;21026;-71
2021/12/14 08:58:12;;;;;;;23.97;13.00;;;;;;;1.05;81.37;96428.58;1709151;83;21039;-67
2021/12/14 09:00:47;;;;;;;21.20;12.30;;;;;;;1.10;81.09;96433.50;1710110;83;21014;-67
2021/12/14 09:03:20;;;;;;;22.40;12.40;;;;;;;1.04;80.64;96433.33;1708840;84;21123;-65
2021/12/14 09:05:50;;;;;;;27.22;15.50;;;;;;;1.01;80.73;96429.34;1710990;84;21019;-74
2021/12/14 09:08:21;;;;;;;22.60;13.13;;;;;;;1.04;80.86;96426.41;1712417;83;21035;-72
2021/12/14 09:10:52;;;;;;;24.07;13.87;;;;;;;0.98;80.83;96429.22;1682059;84;20996;-64
2021/12/14 09:13:19;;;;;;;22.17;13.63;;;;;;;1.02;80.90;96429.79;1706761;84;21529;-71
2021/12/14 09:15:54;;;;;;;20.90;13.20;;;;;;;1.04;81.14;96421.63;1706052;84;21074;-65
2021/12/14 09:18:22;;;;;;;20.23;12.77;;;;;;;1.02;80.79;96425.47;1706472;84;21609;-62
2021/12/14 09:20:57;;;;;;;22.77;13.67;;;;;;;1.08;80.98;96419.18;1705749;83;21633;-63
2021/12/14 09:23:32;;;;;;;19.33;11.43;;;;;;;1.12;80.96;96416.67;1706318;83;21043;-61
2021/12/14 09:26:03;;;;;;;19.67;11.13;;;;;;;1.17;80.63;96410.77;1706368;84;21051;-62
2021/12/14 09:28:28;;;;;;;24.37;14.13;;;;;;;1.18;80.31;96418.14;1706456;83;21079;-61
2021/12/14 09:31:00;;;;;;;20.83;11.90;;;;;;;1.21;80.56;96413.94;1706133;84;21028;-61
2021/12/14 09:33:29;;;;;;;15.17;8.70;;;;;;;1.30;80.73;96406.40;1706555;83;21008;-63
2021/12/14 09:35:59;;;;;;;16.37;10.17;;;;;;;1.38;80.57;96403.15;1706367;84;21007;-62
2021/12/14 09:38:33;;;;;;;15.60;9.23;;;;;;;1.39;80.43;96398.01;1706014;84;21027;-62
2021/12/14 09:41:04;;;;;;;19.00;11.83;;;;;;;1.42;79.86;96399.81;1706460;84;21516;-61
2021/12/14 09:43:32;;;;;;;19.37;11.17;;;;;;;1.47;80.29;96399.53;1706613;84;21533;-61
2021/12/14 09:46:01;;;;;;;13.00;9.20;;;;;;;1.54;80.48;96401.88;1718999;83;21092;-60
2021/12/14 09:48:36;;;;;;;19.27;11.43;;;;;;;1.60;79.55;96400.77;1733653;82;21888;-62
2021/12/14 09:51:08;;;;;;;16.10;9.70;;;;;;;1.68;80.05;96396.23;1744094;82;21003;-61
2021/12/14 09:53:40;;;;;;;16.13;10.00;;;;;;;1.69;79.23;96404.95;1743930;82;21027;-61
2021/12/14 09:56:09;;;;;;;19.90;11.10;;;;;;;1.72;79.37;96403.30;1744076;82;20967;-62
2021/12/14 09:58:44;;;;;;;16.87;10.37;;;;;;;1.73;79.03;96408.95;1744034;82;21034;-65
2021/12/14 10:01:16;;;;;;;16.10;10.30;;;;;;;1.68;78.89;96396.66;1733070;82;21532;-62
2021/12/14 10:03:47;;;;;;;13.10;9.03;;;;;;;1.64;78.99;96403.94;1727996;82;21030;-65
2021/12/14 10:06:19;;;;;;;19.77;11.83;;;;;;;1.60;79.46;96399.47;1731497;82;21099;-61
2021/12/14 10:08:52;;;;;;;17.60;8.90;;;;;;;1.63;79.85;96401.73;1749215;81;20999;-60
2021/12/14 10:11:36;;;;;;;;;;;;;;;1.55;78.33;96399.75;1732909;82;21023;-61
2021/12/14 10:13:55;;;;;;;16.70;9.00;;;;;;;1.53;79.07;96395.80;1705759;83;20113;-61
2021/12/14 10:16:24;;;;;;;17.03;10.60;;;;;;;1.61;79.67;96398.19;1732097;82;20984;-61
2021/12/14 10:18:56;;;;;;;17.60;9.50;;;;;;;1.64;79.60;96397.00;1733423;82;21000;-60
2021/12/14 10:21:29;;;;;;;14.47;9.17;;;;;;;1.75;79.97;96392.52;1732627;82;21577;-60
2021/12/14 10:23:59;;;;;;;16.52;10.30;;;;;;;1.77;79.28;96386.52;1742067;82;21497;-61
2021/12/14 10:26:30;;;;;;;15.47;9.33;;;;;;;1.82;79.50;96390.56;1741475;82;21027;-61
2021/12/14 10:28:59;;;;;;;19.63;11.17;;;;;;;1.82;79.23;96385.36;1742635;82;21086;-61
2021/12/14 10:31:41;;;;;;;18.83;11.33;;;;;;;1.88;79.41;96388.12;1743479;82;21115;-61
2021/12/14 10:34:14;;;;;;;16.97;10.17;;;;;;;1.94;78.90;96381.37;1743432;82;21082;-61
2021/12/14 10:36:46;;;;;;;;;;;;;;;1.90;78.87;96382.11;1745493;82;21031;-61
2021/12/14 10:44:53;;;;;;;17.83;10.00;;;;;;;1.95;79.37;96394.83;1746816;82;21075;-62
2021/12/14 10:47:25;;;;;;;18.43;10.17;;;;;;;1.85;79.29;96393.24;1758031;82;21086;-62
2021/12/14 10:49:54;;;;;;;19.50;11.00;;;;;;;1.86;79.54;96384.16;1748953;82;21481;-62
2021/12/14 10:52:26;;;;;;;18.23;11.07;;;;;;;1.82;79.08;96382.76;1739285;81;21093;-62
2021/12/14 10:54:58;;;;;;;18.10;11.03;;;;;;;1.77;79.52;96376.55;1739018;82;21528;-62
2021/12/14 10:57:30;;;;;;;18.57;10.60;;;;;;;1.81;80.12;96371.44;1738996;82;21069;-62
2021/12/14 10:59:58;;;;;;;18.27;11.27;;;;;;;1.80;80.01;96370.12;1738850;82;21097;-62
2021/12/14 11:02:27;;;;;;;17.53;11.00;;;;;;;1.79;79.89;96365.73;1739480;82;21504;-63
2021/12/14 11:04:58;;;;;;;14.80;9.60;;;;;;;1.84;80.25;96365.44;1738902;82;21043;-62
2021/12/14 11:07:39;;;;;;;11.23;8.27;;;;;;;1.88;80.10;96364.70;1738784;82;21038;-63
2021/12/14 11:10:22;;;;;;;11.83;6.70;;;;;;;1.92;79.32;96362.65;1739509;82;20996;-62
2021/12/14 11:13:00;;;;;;;13.35;8.55;;;;;;;1.91;78.98;96353.06;1739538;82;21094;-62
2021/12/14 11:15:35;;;;;;;11.87;8.13;;;;;;;1.94;79.43;96354.05;1739563;82;21000;-62
2021/12/14 11:18:10;;;;;;;13.13;8.20;;;;;;;2.01;79.43;96347.69;1739779;82;20996;-62
2021/12/14 11:20:54;;;;;;;12.73;7.77;;;;;;;2.00;78.70;96346.81;1739391;82;21087;-62
2021/12/14 11:23:24;;;;;;;;;;;;;;;1.99;78.79;96345.06;1741981;82;21039;-62
2021/12/14 11:26:12;;;;;;;14.17;8.37;;;;;;;2.06;78.73;96344.78;1739552;82;20421;-62
2021/12/14 11:28:49;;;;;;;11.97;8.37;;;;;;;2.10;78.12;96348.81;1735343;82;21070;-62
2021/12/14 11:31:40;;;;;;;8.53;5.50;;;;;;;2.13;78.29;96349.31;1738602;82;21487;-62
2021/12/14 11:34:17;;;;;;;13.60;7.77;;;;;;;2.07;77.65;96344.84;1739207;82;21011;-62
2021/12/14 11:36:54;;;;;;;12.03;7.23;;;;;;;2.01;78.34;96343.35;1739462;82;21103;-61
2021/12/14 11:39:29;;;;;;;13.67;7.37;;;;;;;2.04;78.22;96334.34;1739607;82;21007;-61
2021/12/14 11:42:12;;;;;;;12.43;8.00;;;;;;;2.06;78.27;96334.37;1739750;82;21050;-62
2021/12/14 11:44:42;;;;;;;;;;;;;;;2.22;78.57;96336.94;1743099;81;21049;-62
2021/12/14 11:50:00;;;;;;;;;;;;;;;2.30;77.41;96334.13;1770116;81;21030;-62
2021/12/14 11:52:52;;;;;;;;;;;;;;;2.34;77.77;96329.44;1766357;81;20129;-62
2021/12/14 11:55:45;;;;;;;16.83;9.30;;;;;;;2.29;76.97;96332.34;1768303;81;20186;-62
2021/12/14 11:58:33;;;;;;;12.78;7.08;;;;;;;2.16;76.72;96330.73;1768813;81;22261;-62
2021/12/14 12:01:36;;;;;;;17.77;10.73;;;;;;;2.20;77.14;96338.22;1725319;81;21034;-62
2021/12/14 12:04:16;;;;;;;27.20;14.53;;;;;;;2.19;78.21;96332.53;1768150;81;21034;-62
2021/12/14 12:09:33;;;;;;;21.67;12.90;;;;;;;2.15;77.82;96327.69;1768230;81;21093;-62
2021/12/14 12:12:09;;;;;;;17.13;10.47;;;;;;;2.27;78.77;96323.22;1768446;81;21141;-62
2021/12/14 12:14:59;;;;;;;18.03;9.03;;;;;;;2.35;78.42;96324.28;1768202;81;21130;-62
2021/12/14 12:17:37;;;;;;;43.83;23.70;;;;;;;2.36;77.71;96326.45;1766903;81;21587;-62
2021/12/14 12:20:24;;;;;;;21.53;11.57;;;;;;;2.49;77.93;96334.15;1768746;81;21496;-62
2021/12/14 12:23:05;;;;;;;19.10;11.30;;;;;;;2.48;77.74;96330.67;1768181;81;21137;-62
2021/12/14 12:25:45;;;;;;;20.80;12.93;;;;;;;2.47;77.62;96327.63;1768576;81;21539;-62
2021/12/14 12:28:27;;;;;;;13.93;9.17;;;;;;;2.52;78.02;96323.80;1768140;81;21053;-62
2021/12/14 12:31:04;;;;;;;27.67;17.10;;;;;;;2.49;77.20;96322.42;1768499;81;20982;-61
2021/12/14 12:33:37;;;;;;;25.75;13.28;;;;;;;2.42;77.07;96324.42;1767761;81;21030;-62
2021/12/14 12:36:17;;;;;;;20.03;10.90;;;;;;;2.38;77.46;96324.35;1768578;81;21061;-62